Time;durP1;ratioP1;P1;durP2;ratioP2;P2;SDS_P1;SDS_P2;PMS_P1;PMS_P2;Temp;Humidity;BMP_temperature;BMP_pressure;BME280_temperature;BME280_humidity;BME280_pressure;Samples;Min_cycle;Max_cycle;Signal;HPM_P1;HPM_P2
2021/01/13 00:01:29;;;;;;;4.18;0.17;;;1.70;99.90;;;;;;5074936;28;20029;-76
2021/01/13 00:03:54;;;;;;;10.00;0.65;;;1.80;99.90;;;;;;5056994;28;20012;-77
2021/01/13 00:06:20;;;;;;;3.90;0.05;;;1.80;99.90;;;;;;5075055;28;20029;-77
2021/01/13 00:08:45;;;;;;;9.95;0.52;;;1.90;99.90;;;;;;5056624;28;20036;-77
2021/01/13 00:11:13;;;;;;;6.55;0.00;;;1.90;99.90;;;;;;5074313;28;20035;-77
2021/01/13 00:13:38;;;;;;;5.00;0.00;;;2.00;99.90;;;;;;5074516;28;20047;-77
2021/01/13 00:16:04;;;;;;;5.43;0.25;;;2.10;99.90;;;;;;5074541;28;20028;-77
2021/01/13 00:18:29;;;;;;;3.80;0.10;;;2.10;99.90;;;;;;5074231;28;20103;-77
2021/01/13 00:20:55;;;;;;;2.78;0.17;;;2.10;99.90;;;;;;5074764;28;20032;-77
2021/01/13 00:23:20;;;;;;;10.07;0.20;;;2.20;99.90;;;;;;5074124;28;20392;-77
2021/01/13 00:25:46;;;;;;;4.80;0.10;;;2.40;99.90;;;;;;5074882;28;20058;-77
2021/01/13 00:28:11;;;;;;;5.95;0.32;;;2.50;99.90;;;;;;5074210;28;20070;-77
2021/01/13 00:30:40;;;;;;;5.70;0.75;;;2.70;99.90;;;;;;5056847;28;20392;-78
2021/01/13 00:33:09;;;;;;;4.55;0.00;;;2.80;99.90;;;;;;5056287;28;20370;-77
2021/01/13 00:35:34;;;;;;;3.90;0.00;;;2.80;99.90;;;;;;5074627;28;20035;-77
2021/01/13 00:37:59;;;;;;;3.55;0.00;;;2.70;99.90;;;;;;5073774;28;20541;-78
2021/01/13 00:40:25;;;;;;;3.83;0.20;;;2.70;99.90;;;;;;5056388;28;20064;-78
2021/01/13 00:42:51;;;;;;;3.75;0.40;;;2.80;99.90;;;;;;5074457;28;20164;-78
2021/01/13 00:45:17;;;;;;;8.02;1.05;;;2.80;99.90;;;;;;5074839;28;20029;-78
2021/01/13 00:47:43;;;;;;;4.75;0.00;;;2.80;99.90;;;;;;5074521;28;20516;-77
2021/01/13 00:50:12;;;;;;;1.02;0.00;;;2.80;99.90;;;;;;5074717;28;20059;-77
2021/01/13 00:52:44;;;;;;;1.95;0.00;;;2.80;99.90;;;;;;5074474;28;20028;-77
2021/01/13 00:55:10;;;;;;;1.42;0.00;;;2.70;99.90;;;;;;5073980;28;20070;-77
2021/01/13 00:57:35;;;;;;;7.10;0.15;;;2.60;99.90;;;;;;5073924;28;20028;-78
2021/01/13 01:00:01;;;;;;;2.15;0.00;;;2.40;99.90;;;;;;5074396;28;20443;-78
2021/01/13 01:02:26;;;;;;;0.98;0.00;;;2.30;99.90;;;;;;5056013;28;20025;-78
2021/01/13 01:04:52;;;;;;;4.72;0.10;;;2.20;99.90;;;;;;5056117;28;20389;-78
2021/01/13 01:07:17;;;;;;;1.85;0.00;;;2.10;99.90;;;;;;5074550;28;20384;-77
2021/01/13 01:09:43;;;;;;;0.98;0.00;;;2.10;99.90;;;;;;5074131;28;20028;-77
2021/01/13 01:12:08;;;;;;;8.23;0.32;;;2.00;99.90;;;;;;5056252;28;20017;-77
2021/01/13 01:14:34;;;;;;;7.22;0.43;;;2.00;99.90;;;;;;5073523;28;20020;-77
2021/01/13 01:17:00;;;;;;;13.05;0.45;;;1.90;99.90;;;;;;5074410;28;20493;-76
2021/01/13 01:19:25;;;;;;;4.28;0.40;;;1.90;99.90;;;;;;5074339;28;20068;-77
2021/01/13 01:21:51;;;;;;;8.60;0.35;;;1.80;99.90;;;;;;5055983;28;20025;-77
2021/01/13 01:24:16;;;;;;;3.17;0.00;;;1.80;99.90;;;;;;5073861;28;20389;-77
2021/01/13 01:26:45;;;;;;;8.30;1.23;;;1.80;99.90;;;;;;5076315;28;20051;-77
2021/01/13 01:29:11;;;;;;;9.23;0.75;;;1.70;99.90;;;;;;5077253;28;20025;-77
2021/01/13 01:31:36;;;;;;;2.30;0.40;;;1.70;99.90;;;;;;5077355;28;20025;-76
2021/01/13 01:34:02;;;;;;;3.75;0.00;;;1.70;99.90;;;;;;5059377;28;20111;-77
2021/01/13 01:36:28;;;;;;;5.47;0.38;;;1.70;99.90;;;;;;5078157;28;20480;-76
2021/01/13 01:38:53;;;;;;;8.55;0.20;;;1.70;99.90;;;;;;5059656;28;20376;-76
2021/01/13 01:41:18;;;;;;;5.55;0.00;;;1.70;99.90;;;;;;5077508;28;20099;-76
2021/01/13 01:43:45;;;;;;;8.93;0.60;;;1.70;99.90;;;;;;5076944;28;20028;-76
2021/01/13 01:46:11;;;;;;;9.35;0.52;;;1.60;99.90;;;;;;5058913;28;20027;-76
2021/01/13 01:48:50;;;;;;;6.40;0.10;;;1.60;99.90;;;;;;5076663;28;20078;-76
2021/01/13 01:51:19;;;;;;;;;;;1.60;99.90;;;;;;5077176;28;20033;-76
2021/01/13 01:54:09;;;;;;;4.70;0.00;;;1.60;99.90;;;;;;5076612;28;19973;-78
2021/01/13 01:56:37;;;;;;;8.65;0.10;;;1.60;99.90;;;;;;5058546;28;20033;-76
2021/01/13 01:59:04;;;;;;;4.80;0.13;;;1.70;99.90;;;;;;5069859;28;20025;-76
2021/01/13 02:01:40;;;;;;;3.70;0.00;;;1.80;99.90;;;;;;5057111;28;20028;-76
2021/01/13 02:04:12;;;;;;;7.90;0.80;;;2.00;99.90;;;;;;5056586;28;20134;-76
2021/01/13 02:07:18;;;;;;;2.33;0.00;;;2.00;99.90;;;;;;5038622;28;20401;-76
2021/01/13 02:09:44;;;;;;;4.00;0.00;;;2.10;99.90;;;;;;5065075;28;20125;-76
2021/01/13 02:12:14;;;;;;;7.80;0.55;;;2.20;99.90;;;;;;5076148;28;20480;-75
2021/01/13 02:14:41;;;;;;;4.65;0.20;;;2.20;99.90;;;;;;5076135;28;20028;-75
2021/01/13 02:17:08;;;;;;;9.90;0.25;;;2.20;99.90;;;;;;5072364;28;20017;-75
2021/01/13 02:19:49;;;;;;;1.77;0.00;;;2.20;99.90;;;;;;5057232;28;20377;-76
2021/01/13 02:22:20;;;;;;;5.88;0.10;;;2.20;99.90;;;;;;5057003;28;20099;-76
2021/01/13 02:25:06;;;;;;;2.95;0.25;;;2.30;99.90;;;;;;5038510;28;20032;-76
2021/01/13 02:27:56;;;;;;;3.70;0.10;;;2.30;99.90;;;;;;5055791;28;20103;-76
2021/01/13 02:30:29;;;;;;;4.90;0.00;;;2.50;99.90;;;;;;5056096;28;20033;-76
2021/01/13 02:32:58;;;;;;;4.13;0.73;;;2.40;99.90;;;;;;5055589;28;20436;-76
2021/01/13 02:35:28;;;;;;;4.47;0.00;;;2.40;99.90;;;;;;5056848;28;20025;-76
2021/01/13 02:38:09;;;;;;;7.97;0.65;;;2.50;99.90;;;;;;5054908;28;20021;-76
2021/01/13 02:40:36;;;;;;;3.83;0.00;;;2.60;99.90;;;;;;5055543;28;20021;-76
2021/01/13 02:43:08;;;;;;;2.03;0.20;;;2.60;99.90;;;;;;5055986;28;20075;-76
2021/01/13 02:45:37;;;;;;;5.05;0.55;;;2.70;99.90;;;;;;5059034;28;20108;-76
2021/01/13 02:48:04;;;;;;;3.63;0.03;;;2.80;99.90;;;;;;5074920;28;20107;-76
2021/01/13 02:50:36;;;;;;;6.82;0.08;;;2.80;99.90;;;;;;5057403;28;20107;-76
2021/01/13 02:53:10;;;;;;;1.13;0.00;;;3.00;99.90;;;;;;5075442;28;20464;-76
2021/01/13 02:55:41;;;;;;;3.22;0.10;;;3.00;99.90;;;;;;5074679;28;20024;-75
2021/01/13 02:58:10;;;;;;;3.25;0.10;;;3.10;99.90;;;;;;5075035;28;20104;-75
2021/01/13 03:00:36;;;;;;;3.38;0.43;;;3.10;99.90;;;;;;5074935;28;20120;-75
2021/01/13 03:03:02;;;;;;;5.38;0.32;;;3.00;99.90;;;;;;5057151;28;20538;-75
2021/01/13 03:05:28;;;;;;;4.32;0.10;;;3.00;99.90;;;;;;5075097;28;20021;-75
2021/01/13 03:07:58;;;;;;;4.47;0.10;;;3.00;99.90;;;;;;5074863;28;20425;-75
2021/01/13 03:10:26;;;;;;;5.63;0.17;;;2.90;99.90;;;;;;5056886;28;20035;-75
2021/01/13 03:12:59;;;;;;;4.05;0.30;;;2.80;99.90;;;;;;5074755;28;20032;-75
2021/01/13 03:15:30;;;;;;;4.68;0.20;;;2.70;99.90;;;;;;5074629;28;20032;-75
2021/01/13 03:18:04;;;;;;;7.13;0.20;;;2.70;99.90;;;;;;5074988;28;20032;-76
2021/01/13 03:20:48;;;;;;;5.55;0.00;;;2.60;99.90;;;;;;5075245;28;20104;-76
2021/01/13 03:23:19;;;;;;;8.15;0.00;;;2.70;99.90;;;;;;5074776;28;20103;-76
2021/01/13 03:25:53;;;;;;;4.75;0.52;;;2.70;99.90;;;;;;5074999;28;20028;-76
2021/01/13 03:28:23;;;;;;;1.83;0.00;;;2.70;99.90;;;;;;5074838;28;20365;-76
2021/01/13 03:30:50;;;;;;;8.50;0.35;;;2.90;99.90;;;;;;5074630;28;20086;-75
2021/01/13 03:33:16;;;;;;;2.67;0.57;;;3.00;99.90;;;;;;5056499;28;20055;-75
2021/01/13 03:36:05;;;;;;;5.72;0.10;;;3.00;99.90;;;;;;5056607;28;20016;-75
2021/01/13 03:38:32;;;;;;;2.92;0.10;;;3.00;99.90;;;;;;5073701;28;20035;-75
2021/01/13 03:41:06;;;;;;;11.48;1.10;;;3.00;99.90;;;;;;5074739;28;20025;-76
2021/01/13 03:43:40;;;;;;;3.25;0.10;;;3.00;99.90;;;;;;5074577;28;20029;-76
2021/01/13 03:46:08;;;;;;;4.22;0.82;;;3.10;99.90;;;;;;5074845;28;20025;-75
2021/01/13 03:48:47;;;;;;;4.05;0.00;;;3.20;99.90;;;;;;5056490;28;20012;-75
2021/01/13 03:51:25;;;;;;;7.05;0.00;;;3.20;99.90;;;;;;5065116;28;20033;-76
2021/01/13 03:53:51;;;;;;;4.95;0.00;;;3.20;99.90;;;;;;5054768;28;20021;-76
2021/01/13 03:56:25;;;;;;;7.13;0.00;;;3.30;99.90;;;;;;5054769;28;20386;-76
2021/01/13 03:58:51;;;;;;;7.60;0.10;;;3.20;99.90;;;;;;5054659;28;20017;-76
2021/01/13 04:01:23;;;;;;;5.97;0.30;;;3.30;99.90;;;;;;5047756;28;20128;-76
2021/01/13 04:03:54;;;;;;;4.82;0.00;;;3.20;99.90;;;;;;5074229;28;20024;-75
2021/01/13 04:06:20;;;;;;;3.80;0.00;;;3.10;99.90;;;;;;5074858;28;20036;-75
2021/01/13 04:08:47;;;;;;;4.35;0.43;;;3.10;99.90;;;;;;5074719;28;20485;-75
2021/01/13 04:11:23;;;;;;;9.25;0.00;;;3.00;99.90;;;;;;5054710;28;20036;-76
2021/01/13 04:14:01;;;;;;;8.02;0.05;;;2.90;99.90;;;;;;5074614;28;20021;-76
2021/01/13 04:16:34;;;;;;;4.32;0.20;;;2.90;99.90;;;;;;5056407;28;20021;-76
2021/01/13 04:19:00;;;;;;;3.50;0.00;;;2.90;99.90;;;;;;5074384;28;20027;-76
2021/01/13 04:21:26;;;;;;;5.88;0.00;;;2.90;99.90;;;;;;5045543;28;20485;-76
2021/01/13 04:23:57;;;;;;;8.90;0.75;;;2.90;99.90;;;;;;5036582;28;20029;-76
2021/01/13 04:26:23;;;;;;;5.55;0.40;;;2.80;99.90;;;;;;5054415;28;20029;-75
2021/01/13 04:28:48;;;;;;;3.65;0.43;;;2.90;99.90;;;;;;5066376;28;20035;-75
2021/01/13 04:31:14;;;;;;;5.53;0.17;;;3.00;99.90;;;;;;5074290;28;20028;-75
2021/01/13 04:33:40;;;;;;;6.55;0.30;;;3.00;99.90;;;;;;5070211;28;20372;-75
2021/01/13 04:36:06;;;;;;;2.13;0.00;;;3.10;99.90;;;;;;5054011;28;20029;-76
2021/01/13 04:38:33;;;;;;;9.27;0.63;;;3.10;99.90;;;;;;5061343;28;20013;-76
2021/01/13 04:41:09;;;;;;;2.40;0.00;;;3.20;99.90;;;;;;5055762;28;20021;-76
2021/01/13 04:43:53;;;;;;;15.40;0.15;;;3.20;99.90;;;;;;5054083;28;20074;-76
2021/01/13 04:46:34;;;;;;;5.82;0.17;;;3.10;99.90;;;;;;5054068;28;20022;-76
2021/01/13 04:49:12;;;;;;;6.45;0.75;;;3.20;99.90;;;;;;5036197;28;20021;-76
2021/01/13 04:51:42;;;;;;;4.63;0.80;;;3.10;99.90;;;;;;5054061;28;20021;-76
2021/01/13 04:54:13;;;;;;;7.82;0.00;;;3.10;99.90;;;;;;5073713;28;20082;-75
2021/01/13 04:56:45;;;;;;;8.15;0.85;;;3.10;99.90;;;;;;5073538;28;20017;-76
2021/01/13 04:59:25;;;;;;;8.93;0.60;;;3.20;99.90;;;;;;5073649;28;20074;-76
2021/01/13 05:02:11;;;;;;;6.85;0.20;;;3.40;99.90;;;;;;5076222;28;20029;-75
2021/01/13 05:05:05;;;;;;;3.92;0.30;;;3.40;99.90;;;;;;5047022;28;20035;-76
2021/01/13 05:07:31;;;;;;;5.00;0.35;;;3.40;99.90;;;;;;5060443;28;20024;-76
2021/01/13 05:10:06;;;;;;;6.20;0.45;;;3.40;99.90;;;;;;5077679;28;20035;-76
2021/01/13 05:12:48;;;;;;;6.47;0.08;;;3.30;99.90;;;;;;5077167;28;20485;-75
2021/01/13 05:15:21;;;;;;;4.15;0.00;;;3.30;99.90;;;;;;5059196;28;20028;-75
2021/01/13 05:17:58;;;;;;;6.00;0.77;;;3.40;99.90;;;;;;5077030;28;20021;-76
2021/01/13 05:20:27;;;;;;;6.95;0.10;;;3.30;99.90;;;;;;5059683;28;20120;-76
2021/01/13 05:22:53;;;;;;;6.20;0.10;;;3.30;99.90;;;;;;5109444;22;20097;-78
2021/01/13 05:25:50;;;;;;;6.97;0.73;;;3.30;99.90;;;;;;5079445;28;20024;-78
2021/01/13 05:28:18;;;;;;;7.70;0.20;;;3.30;99.90;;;;;;5097769;28;20044;-78
2021/01/13 05:30:58;;;;;;;6.07;0.38;;;3.20;99.90;;;;;;5097718;28;20012;-78
2021/01/13 05:33:26;;;;;;;9.52;0.65;;;3.20;99.90;;;;;;5079539;28;20028;-78
2021/01/13 05:36:01;;;;;;;8.10;0.00;;;3.20;99.90;;;;;;5079395;28;20383;-78
2021/01/13 05:38:38;;;;;;;7.88;0.00;;;3.20;99.90;;;;;;5079433;28;20028;-78
2021/01/13 05:41:14;;;;;;;14.73;1.05;;;3.20;99.90;;;;;;5097215;28;20024;-78
2021/01/13 05:43:45;;;;;;;1.98;0.10;;;3.20;99.90;;;;;;5079357;28;20016;-78
2021/01/13 05:46:18;;;;;;;9.75;0.63;;;3.20;99.90;;;;;;5078983;28;20028;-77
2021/01/13 05:48:51;;;;;;;7.05;0.30;;;3.20;99.90;;;;;;5097264;28;20020;-77
2021/01/13 05:51:30;;;;;;;6.82;0.35;;;3.20;99.90;;;;;;5078803;28;20059;-78
2021/01/13 05:53:56;;;;;;;5.47;0.20;;;3.20;99.90;;;;;;5078995;28;20016;-77
2021/01/13 05:56:22;;;;;;;7.05;0.28;;;3.20;99.90;;;;;;5097042;28;20020;-78
2021/01/13 05:59:04;;;;;;;6.55;0.03;;;3.20;99.90;;;;;;5097580;28;20020;-79
2021/01/13 06:01:50;;;;;;;6.22;0.20;;;3.20;99.90;;;;;;5097299;28;20024;-79
2021/01/13 06:04:17;;;;;;;5.55;0.30;;;3.20;99.90;;;;;;5079023;28;20054;-79
2021/01/13 06:06:58;;;;;;;4.80;0.35;;;3.30;99.90;;;;;;5078759;28;20499;-78
2021/01/13 06:09:24;;;;;;;6.28;0.32;;;3.40;99.90;;;;;;5078876;28;20028;-78
2021/01/13 06:11:55;;;;;;;9.82;0.52;;;3.30;99.90;;;;;;5077954;28;20111;-78
2021/01/13 06:14:26;;;;;;;9.35;0.30;;;3.40;99.90;;;;;;5080742;28;20374;-78
2021/01/13 06:16:53;;;;;;;8.57;0.55;;;3.40;99.90;;;;;;5058996;28;20401;-78
2021/01/13 06:19:20;;;;;;;4.57;0.55;;;3.30;99.90;;;;;;5058607;28;20024;-77
2021/01/13 06:21:46;;;;;;;3.15;0.13;;;3.40;99.90;;;;;;5058374;28;20031;-79
2021/01/13 06:24:12;;;;;;;8.90;0.15;;;3.30;99.90;;;;;;5058432;28;20484;-78
2021/01/13 06:26:52;;;;;;;8.52;0.95;;;3.30;99.90;;;;;;5061372;28;20187;-79
2021/01/13 06:29:23;;;;;;;7.97;0.85;;;3.40;99.90;;;;;;5059187;28;20495;-77
2021/01/13 06:31:56;;;;;;;8.63;0.90;;;3.30;99.90;;;;;;5057501;28;20021;-78
2021/01/13 06:34:38;;;;;;;6.13;0.30;;;3.30;99.90;;;;;;5075834;28;20028;-78
2021/01/13 06:37:29;;;;;;;4.18;0.10;;;3.30;99.90;;;;;;5057586;28;20021;-77
2021/01/13 06:39:56;;;;;;;6.15;0.03;;;3.30;99.90;;;;;;5076279;28;20374;-77
2021/01/13 06:42:31;;;;;;;2.88;0.43;;;3.30;99.90;;;;;;5058087;28;20108;-77
2021/01/13 06:44:57;;;;;;;4.90;0.10;;;3.30;99.90;;;;;;5057886;28;20088;-77
2021/01/13 06:47:26;;;;;;;4.75;0.95;;;3.30;99.90;;;;;;5057949;28;20444;-78
2021/01/13 06:49:51;;;;;;;5.88;0.38;;;3.30;99.90;;;;;;5076844;28;20028;-75
2021/01/13 06:52:29;;;;;;;4.75;0.00;;;3.20;99.90;;;;;;5060178;28;20481;-75
2021/01/13 06:55:02;;;;;;;4.95;0.08;;;3.20;99.90;;;;;;5078540;28;20023;-75
2021/01/13 06:57:29;;;;;;;6.30;1.80;;;3.10;99.90;;;;;;5078828;28;20032;-74
2021/01/13 06:59:55;;;;;;;3.25;0.35;;;3.10;99.90;;;;;;5076912;28;20016;-76
2021/01/13 07:02:31;;;;;;;2.28;0.00;;;3.10;99.90;;;;;;5076912;28;20082;-75
2021/01/13 07:04:57;;;;;;;8.32;0.22;;;3.10;99.90;;;;;;5076916;28;20357;-75
2021/01/13 07:07:22;;;;;;;4.13;0.20;;;3.10;99.90;;;;;;5058726;28;20162;-75
2021/01/13 07:09:49;;;;;;;6.32;0.35;;;3.10;99.90;;;;;;5077164;28;20489;-75
2021/01/13 07:12:25;;;;;;;5.97;0.98;;;3.10;99.90;;;;;;5078818;28;20049;-75
2021/01/13 07:15:13;;;;;;;5.78;0.20;;;3.20;99.90;;;;;;5077273;28;20024;-75
2021/01/13 07:17:39;;;;;;;6.20;0.10;;;3.20;99.90;;;;;;5079084;28;20120;-74
2021/01/13 07:20:06;;;;;;;6.10;0.40;;;3.20;99.90;;;;;;5080187;28;20017;-75
2021/01/13 07:22:32;;;;;;;9.55;1.15;;;3.20;99.90;;;;;;5079777;28;20032;-75
2021/01/13 07:24:57;;;;;;;7.47;0.70;;;3.20;99.90;;;;;;5078540;28;20035;-75
2021/01/13 07:27:23;;;;;;;5.10;0.13;;;3.20;99.90;;;;;;5061216;28;20029;-75
2021/01/13 07:29:49;;;;;;;8.57;0.55;;;3.20;99.90;;;;;;5078643;28;20064;-75
2021/01/13 07:32:20;;;;;;;11.65;0.30;;;3.20;99.90;;;;;;5076617;28;20047;-74
2021/01/13 07:35:04;;;;;;;6.03;0.25;;;3.30;99.90;;;;;;5078629;28;20476;-75
2021/01/13 07:37:38;;;;;;;9.75;0.98;;;3.40;99.90;;;;;;5079537;28;20016;-74
2021/01/13 07:40:27;;;;;;;4.80;0.10;;;3.30;99.90;;;;;;5075995;28;20028;-74
2021/01/13 07:43:10;;;;;;;14.57;0.85;;;3.30;99.90;;;;;;5079312;28;20047;-75
2021/01/13 07:45:52;;;;;;;11.63;0.90;;;3.20;99.90;;;;;;5079108;28;20534;-75
2021/01/13 07:49:02;;;;;;;12.27;0.40;;;3.30;99.90;;;;;;5078698;28;20016;-74
2021/01/13 07:51:34;;;;;;;2.28;0.55;;;3.30;99.90;;;;;;5078288;28;20078;-74
2021/01/13 07:54:06;;;;;;;14.90;0.80;;;3.30;99.90;;;;;;5060820;28;20016;-74
2021/01/13 07:56:35;;;;;;;5.07;0.08;;;3.30;99.90;;;;;;5077673;28;20049;-75
2021/01/13 07:59:39;;;;;;;7.85;0.93;;;3.30;99.90;;;;;;5057902;28;20023;-75
2021/01/13 08:02:42;;;;;;;3.75;0.00;;;3.20;99.90;;;;;;5075210;28;20028;-76
2021/01/13 08:05:16;;;;;;;10.15;0.43;;;3.20;99.90;;;;;;5075693;28;20384;-78
2021/01/13 08:07:43;;;;;;;4.30;0.55;;;3.20;99.90;;;;;;5057438;28;20056;-75
2021/01/13 08:10:10;;;;;;;6.90;0.40;;;3.20;99.90;;;;;;5075691;28;20032;-77
2021/01/13 08:13:14;;;;;;;8.07;0.85;;;3.20;99.90;;;;;;5075646;28;20016;-75
2021/01/13 08:15:48;;;;;;;14.43;0.88;;;3.10;99.90;;;;;;5075764;28;20059;-76
2021/01/13 08:18:55;;;;;;;8.90;0.65;;;3.20;99.90;;;;;;5075397;28;20056;-72
2021/01/13 08:21:32;;;;;;;6.80;0.88;;;3.20;99.90;;;;;;5074945;28;20009;-72
2021/01/13 08:24:06;;;;;;;3.53;0.00;;;3.20;99.90;;;;;;5074943;28;20028;-73
2021/01/13 08:26:37;;;;;;;7.32;0.75;;;3.20;99.90;;;;;;5074938;28;20530;-72
2021/01/13 08:29:05;;;;;;;6.18;0.20;;;3.30;99.90;;;;;;5074726;28;20111;-72
2021/01/13 08:31:31;;;;;;;8.18;0.43;;;3.40;99.90;;;;;;5073792;28;20029;-72
2021/01/13 08:34:08;;;;;;;8.57;0.40;;;3.40;99.90;;;;;;5075402;28;20103;-72
2021/01/13 08:36:35;;;;;;;4.80;0.55;;;3.50;99.90;;;;;;5077326;28;20354;-72
2021/01/13 08:39:09;;;;;;;15.07;0.75;;;3.60;99.90;;;;;;5078462;28;20016;-72
2021/01/13 08:41:36;;;;;;;2.47;0.20;;;3.70;99.90;;;;;;5078719;28;20024;-72
2021/01/13 08:44:05;;;;;;;3.10;0.20;;;3.70;99.90;;;;;;5060284;28;20020;-76
2021/01/13 08:47:00;;;;;;;7.40;1.75;;;3.80;99.90;;;;;;5078420;28;20027;-76
2021/01/13 08:49:28;;;;;;;7.32;0.10;;;3.90;99.90;;;;;;5078904;28;20060;-72
2021/01/13 08:52:16;;;;;;;7.47;0.33;;;4.00;99.90;;;;;;5078070;28;20025;-72
2021/01/13 08:54:44;;;;;;;8.75;0.32;;;4.10;99.90;;;;;;5078396;28;20095;-76
2021/01/13 08:57:11;;;;;;;8.00;0.68;;;4.10;99.90;;;;;;5077579;28;20017;-74
2021/01/13 08:59:40;;;;;;;3.50;0.43;;;4.10;99.90;;;;;;5061117;28;20021;-76
2021/01/13 09:02:11;;;;;;;5.57;0.30;;;4.10;99.90;;;;;;5078648;28;20024;-74
2021/01/13 09:04:55;;;;;;;1.33;0.05;;;4.20;99.90;;;;;;5080499;28;20020;-74
2021/01/13 09:07:32;;;;;;;16.98;0.95;;;4.20;99.90;;;;;;5061301;28;20118;-74
2021/01/13 09:10:12;;;;;;;6.20;0.13;;;4.20;99.90;;;;;;5077939;28;20091;-78
2021/01/13 09:12:42;;;;;;;8.38;0.20;;;4.30;99.90;;;;;;5078102;28;20108;-76
2021/01/13 09:15:08;;;;;;;9.55;0.52;;;4.30;99.90;;;;;;5059945;28;20024;-76
2021/01/13 09:17:51;;;;;;;9.00;0.28;;;4.50;99.90;;;;;;5078719;28;20023;-77
2021/01/13 09:20:29;;;;;;;3.15;0.10;;;4.60;99.90;;;;;;5060383;28;20027;-77
2021/01/13 09:22:57;;;;;;;9.02;0.20;;;4.80;99.90;;;;;;5059034;28;20035;-76
2021/01/13 09:25:47;;;;;;;9.52;0.75;;;4.80;99.90;;;;;;5077491;28;20103;-75
2021/01/13 09:28:18;;;;;;;9.60;0.08;;;4.80;99.90;;;;;;5059260;28;20024;-78
2021/01/13 09:30:44;;;;;;;7.28;0.57;;;4.80;99.90;;;;;;5077793;28;20522;-77
2021/01/13 09:33:14;;;;;;;9.50;0.50;;;4.80;99.90;;;;;;5059568;28;20024;-75
2021/01/13 09:35:47;;;;;;;9.10;0.10;;;4.90;99.90;;;;;;5078854;28;20020;-75
2021/01/13 09:38:14;;;;;;;7.85;0.20;;;4.90;99.90;;;;;;5060055;28;20476;-75
2021/01/13 09:40:52;;;;;;;2.78;0.08;;;4.80;99.90;;;;;;5079644;28;20485;-74
2021/01/13 09:43:44;;;;;;;12.25;0.82;;;4.80;99.90;;;;;;5080917;28;20039;-77
2021/01/13 09:46:22;;;;;;;4.20;0.40;;;4.70;99.90;;;;;;5059776;28;20024;-77
2021/01/13 09:48:57;;;;;;;5.70;0.17;;;4.80;99.90;;;;;;5059724;28;20492;-77
2021/01/13 09:51:23;;;;;;;5.78;0.68;;;4.90;99.90;;;;;;5077355;28;20035;-76
2021/01/13 09:53:50;;;;;;;9.30;0.40;;;5.00;99.90;;;;;;5059889;28;20021;-76
2021/01/13 09:56:16;;;;;;;6.18;0.17;;;5.00;99.90;;;;;;5077590;28;20491;-76
2021/01/13 09:58:44;;;;;;;5.20;0.47;;;5.00;99.90;;;;;;5077039;28;20358;-76
2021/01/13 10:01:16;;;;;;;7.93;0.08;;;5.00;99.90;;;;;;5077354;28;20024;-74
2021/01/13 10:03:44;;;;;;;3.10;0.08;;;5.00;99.90;;;;;;5060151;28;20051;-77
2021/01/13 10:06:26;;;;;;;7.60;0.45;;;5.10;99.90;;;;;;5059336;28;20385;-77
2021/01/13 10:08:51;;;;;;;2.30;0.10;;;5.10;99.90;;;;;;5058823;28;20039;-77
2021/01/13 10:11:19;;;;;;;12.35;0.65;;;5.20;99.90;;;;;;5077368;28;20024;-77
2021/01/13 10:13:52;;;;;;;8.55;0.40;;;5.30;99.90;;;;;;5076367;28;20016;-77
2021/01/13 10:16:18;;;;;;;8.55;0.47;;;5.30;99.90;;;;;;5076343;28;20025;-77
2021/01/13 10:18:53;;;;;;;7.88;0.90;;;5.30;99.90;;;;;;5075941;28;20127;-77
2021/01/13 10:21:19;;;;;;;5.15;0.28;;;5.40;99.90;;;;;;5058163;28;20028;-73
2021/01/13 10:23:46;;;;;;;4.85;0.68;;;5.40;99.90;;;;;;5076022;28;20418;-76
2021/01/13 10:26:12;;;;;;;2.45;0.30;;;5.50;99.90;;;;;;5057958;28;20020;-76
2021/01/13 10:28:38;;;;;;;5.55;0.10;;;5.50;99.90;;;;;;5076314;28;20465;-77
2021/01/13 10:31:06;;;;;;;9.73;0.20;;;5.60;99.90;;;;;;5075847;28;20358;-77
2021/01/13 10:33:52;;;;;;;13.00;0.68;;;5.60;99.90;;;;;;5057971;28;20032;-76
2021/01/13 10:36:33;;;;;;;1.98;0.00;;;5.70;99.90;;;;;;5075543;28;20040;-77
2021/01/13 10:39:00;;;;;;;9.60;0.63;;;5.80;99.90;;;;;;5057986;28;20024;-77
2021/01/13 10:41:30;;;;;;;6.65;0.52;;;5.80;99.90;;;;;;5058256;28;20154;-77
2021/01/13 10:44:02;;;;;;;3.60;0.20;;;5.80;99.90;;;;;;5058711;28;20025;-77
2021/01/13 10:46:39;;;;;;;3.70;0.52;;;5.90;99.90;;;;;;5057511;28;20020;-76
2021/01/13 10:49:09;;;;;;;3.03;0.08;;;5.90;99.30;;;;;;5076301;28;20032;-77
2021/01/13 10:51:38;;;;;;;2.97;0.00;;;5.80;97.90;;;;;;5076232;28;20384;-77
2021/01/13 10:54:09;;;;;;;7.53;0.90;;;5.70;99.40;;;;;;5059015;28;20021;-77
2021/01/13 10:56:39;;;;;;;9.18;0.20;;;5.60;98.00;;;;;;5058627;28;20380;-76
2021/01/13 10:59:16;;;;;;;6.43;0.05;;;5.50;99.30;;;;;;5076165;28;20020;-77
2021/01/13 11:01:47;;;;;;;6.63;0.17;;;5.50;98.20;;;;;;5058878;28;20112;-78
2021/01/13 11:04:26;;;;;;;6.40;0.40;;;5.60;98.70;;;;;;5076677;28;20028;-78
2021/01/13 11:06:57;;;;;;;2.80;0.00;;;5.50;99.40;;;;;;5058220;28;20032;-78
2021/01/13 11:09:23;;;;;;;3.70;0.20;;;5.60;99.80;;;;;;5058866;28;20090;-78
2021/01/13 11:11:50;;;;;;;8.85;0.38;;;5.80;99.90;;;;;;5057902;28;20384;-78
2021/01/13 11:14:27;;;;;;;5.82;0.00;;;6.00;99.40;;;;;;5058449;28;20060;-78
2021/01/13 11:17:20;;;;;;;6.68;0.22;;;6.10;97.30;;;;;;5058922;28;20092;-76
2021/01/13 11:19:53;;;;;;;5.13;0.05;;;6.20;96.80;;;;;;5057025;28;20035;-76
2021/01/13 11:22:30;;;;;;;4.20;0.52;;;6.40;95.10;;;;;;5057781;28;20059;-77
2021/01/13 11:24:58;;;;;;;2.50;0.00;;;6.50;93.40;;;;;;5075077;28;20384;-77
2021/01/13 11:27:24;;;;;;;5.43;0.20;;;6.50;92.70;;;;;;5058028;28;20494;-78
2021/01/13 11:29:55;;;;;;;0.68;0.00;;;6.60;93.70;;;;;;5075194;28;20024;-78
2021/01/13 11:32:24;;;;;;;5.22;0.15;;;6.60;93.10;;;;;;5075389;28;20123;-78
2021/01/13 11:34:53;;;;;;;2.30;0.10;;;6.80;91.70;;;;;;5058176;28;20016;-75
2021/01/13 11:37:27;;;;;;;2.05;0.40;;;6.80;91.40;;;;;;5076106;28;20040;-74
2021/01/13 11:40:14;;;;;;;9.45;0.20;;;6.80;91.10;;;;;;5075800;28;20427;-74
2021/01/13 11:43:23;;;;;;;9.55;1.45;;;6.80;90.20;;;;;;5074705;28;20094;-74
2021/01/13 11:46:07;;;;;;;;;;;6.80;92.20;;;;;;5020602;28;20044;-74
2021/01/13 11:48:50;;;;;;;2.78;0.10;;;6.80;90.70;;;;;;5056846;28;19904;-73
2021/01/13 11:51:17;;;;;;;4.35;0.45;;;6.80;90.50;;;;;;5075292;28;20027;-75
2021/01/13 11:53:45;;;;;;;2.70;0.13;;;6.80;89.00;;;;;;5074799;28;20059;-76
2021/01/13 11:56:11;;;;;;;0.80;0.00;;;6.80;90.20;;;;;;5074761;28;20013;-77
2021/01/13 11:58:45;;;;;;;3.95;0.00;;;6.70;88.40;;;;;;5057121;28;20017;-77
2021/01/13 12:01:11;;;;;;;5.13;0.17;;;6.60;86.40;;;;;;5074962;28;20024;-77
2021/01/13 12:03:37;;;;;;;7.50;0.20;;;6.50;88.60;;;;;;5075045;28;20023;-78
2021/01/13 12:06:07;;;;;;;5.25;0.30;;;6.30;89.60;;;;;;5058070;28;20016;-78
2021/01/13 12:08:32;;;;;;;2.45;0.20;;;6.10;90.30;;;;;;5075243;28;20413;-76
2021/01/13 12:10:58;;;;;;;6.57;0.30;;;6.00;90.70;;;;;;5074624;28;20063;-76
2021/01/13 12:13:30;;;;;;;3.20;0.40;;;5.80;91.10;;;;;;5057515;28;20031;-74
2021/01/13 12:16:00;;;;;;;6.50;0.70;;;5.70;92.20;;;;;;5074694;28;20021;-75
2021/01/13 12:18:27;;;;;;;4.50;0.20;;;5.60;93.00;;;;;;5074941;28;20071;-74
2021/01/13 12:20:55;;;;;;;5.38;0.47;;;5.70;93.90;;;;;;5074714;28;20028;-73
2021/01/13 12:23:29;;;;;;;7.18;0.65;;;6.00;93.10;;;;;;5055771;28;20033;-73
2021/01/13 12:26:23;;;;;;;6.15;0.52;;;6.10;92.50;;;;;;5074628;28;20024;-75
2021/01/13 12:28:55;;;;;;;8.57;0.25;;;6.20;90.80;;;;;;5055983;28;20036;-73
2021/01/13 12:31:21;;;;;;;5.43;0.00;;;6.40;91.10;;;;;;5074193;28;20025;-73
2021/01/13 12:33:58;;;;;;;4.82;0.10;;;6.50;92.10;;;;;;5056014;28;20017;-73
2021/01/13 12:36:25;;;;;;;2.85;0.00;;;6.70;91.20;;;;;;5075055;28;20020;-73
2021/01/13 12:38:52;;;;;;;6.43;0.90;;;6.80;90.20;;;;;;5073928;28;20107;-73
2021/01/13 12:41:30;;;;;;;8.75;0.15;;;6.80;87.80;;;;;;5073827;28;20038;-73
2021/01/13 12:44:01;;;;;;;4.63;0.00;;;6.80;87.90;;;;;;5055596;28;20044;-73
2021/01/13 12:46:29;;;;;;;5.63;1.02;;;7.00;87.50;;;;;;5055840;28;20031;-73
2021/01/13 12:48:55;;;;;;;3.78;0.00;;;6.90;85.90;;;;;;5073954;28;20473;-75
2021/01/13 12:51:21;;;;;;;2.13;0.52;;;7.00;88.40;;;;;;5074195;28;20387;-76
2021/01/13 12:53:46;;;;;;;5.28;0.30;;;7.00;86.70;;;;;;5073961;28;20012;-75
2021/01/13 12:56:22;;;;;;;8.07;0.47;;;7.10;87.10;;;;;;5073840;28;20464;-76
2021/01/13 12:58:48;;;;;;;4.68;1.13;;;7.10;86.10;;;;;;5055343;28;20025;-75
2021/01/13 13:01:13;;;;;;;3.78;0.00;;;7.10;84.00;;;;;;5073885;28;20349;-75
2021/01/13 13:03:39;;;;;;;5.13;0.22;;;7.10;85.90;;;;;;5073384;28;20025;-75
2021/01/13 13:06:06;;;;;;;1.38;0.30;;;7.10;82.70;;;;;;5056042;28;20019;-75
2021/01/13 13:08:32;;;;;;;6.88;0.20;;;7.10;84.40;;;;;;5074136;28;20384;-75
2021/01/13 13:10:57;;;;;;;5.47;0.75;;;7.20;84.70;;;;;;5074412;28;20096;-75
2021/01/13 13:13:23;;;;;;;5.78;0.40;;;7.20;84.70;;;;;;5055907;28;20035;-75
2021/01/13 13:15:48;;;;;;;8.98;0.08;;;7.30;83.10;;;;;;5056365;28;20021;-76
2021/01/13 13:18:14;;;;;;;4.55;0.10;;;7.30;85.70;;;;;;5055332;28;20021;-76
2021/01/13 13:20:40;;;;;;;3.90;0.00;;;7.50;85.50;;;;;;5056078;28;20020;-74
2021/01/13 13:23:05;;;;;;;11.90;1.27;;;7.50;84.30;;;;;;5075770;28;20028;-74